Pingree, ID

5:45 PM MST on February 05, 2016 (GMT -0700)
MyIdahoWeather.com | | Change Station
CLOSE
Current Station
Personal Weather Station
Location: Blackfoot, ID
Elevation: 4534 ft
Nearby Weather Stations

Elev 4534 ft 43.27 °N, 112.52 °W | Updated 4 seconds ago

Overcast
Overcast
20.8 °F
Feels Like 13 °F
N
5.9
Wind Variable Wind from North
Gusts 6.9 mph

Today
High -- | Low -- °F
--% Chance of Precip.
Yesterday
High -- | Low -- °F
Precip. -- in
Pressure 30.65 in
Visibility 10.0 miles
Clouds Few 700 ft
Mostly Cloudy 2400 ft
Overcast 3100 ft
Windchill 13 °F
Dew Point 18 °F
Humidity 88%
Rainfall 0.00 in
Snow Depth Not available.
7:41 AM 5:48 PM
Waning Crescent, 8% visible
METAR KPIH 052353Z 06004KT 10SM FEW007 BKN024 OVC031 M04/M06 A3051 RMK AO2 SLP377 T10441061 11039 21067 58005
Pressure 30.65 in
Visibility 10.0 miles
Clouds Few 700 ft
Mostly Cloudy 2400 ft
Overcast 3100 ft
Windchill 13 °F
Dew Point 18 °F
Humidity 88%
Rainfall 0.00 in
Snow Depth Not available.
7:41 AM 5:48 PM
Waning Crescent, 8% visible
METAR KPIH 052353Z 06004KT 10SM FEW007 BKN024 OVC031 M04/M06 A3051 RMK AO2 SLP377 T10441061 11039 21067 58005

10-Day Weather Forecast

Almanac

Astronomy

Feb. 05, 2016 Rise Set
Actual Time
Civil Twilight
Nautical Twilight
Astronomical Twilight
Moon
Length of Visible Light
Length of Day
Tomorrow will be .
, % of the Moon is Illuminated

Today's Extremes

State Highs State Lows

Community

WunderPhotos

Upload Photos

1,890,900 photos uploaded!

WunderBlog® & News

Nearby

Air Quality

  Air Quality AQ Index Pollutant
Not available.

Snow Depth

Station Depth Elevation

Earthquake Activity

City Distance Mag. Time & Date
Minimum magnitude displayed is 2.5.

Coastal Water Temperatures

Place Temperature

Stations

Nearby Weather Stations

Station Location Temp. Windchill Dew Point Humidity Wind Precip. Elev Updated Type
                   

Watches & Warnings

There are currently no watches in effect.